CPX786 Details

Departure: Kingsford Smith International Airport (YSSY)
Arrival: Chek Lap Kok International (VHHH)
Route: RIC H202 AGETA R340 AMN A461 ZAM A583 SABNO V541 DOVAR V541 BETTY


Current Weather Information
YSSY 260930Z 14013KT CAVOK 21/10 Q1019 NOSIG
VHHH 260930Z 09013KT 9999 FEW018 24/19 Q1016 NOSIG